createdAt,value
2019-05-14T00:00:32.073Z,1.70
2019-05-14T00:03:02.123Z,1.77
2019-05-14T00:05:32.001Z,1.90
2019-05-14T00:07:59.518Z,2.00
2019-05-14T00:10:27.353Z,2.10
2019-05-14T00:13:11.991Z,1.60
2019-05-14T00:15:41.429Z,2.50
2019-05-14T00:18:11.634Z,1.73
2019-05-14T00:20:39.070Z,1.97
2019-05-14T00:23:06.884Z,2.10
2019-05-14T00:25:34.642Z,2.20
2019-05-14T00:28:02.476Z,2.17
2019-05-14T00:30:31.736Z,1.90
2019-05-14T00:33:01.225Z,2.40
2019-05-14T00:35:32.503Z,2.17
2019-05-14T00:38:01.351Z,2.13
2019-05-14T00:40:31.341Z,2.50
2019-05-14T00:42:59.096Z,2.20
2019-05-14T00:45:26.909Z,1.90
2019-05-14T00:47:54.729Z,2.00
2019-05-14T00:50:22.510Z,2.30
2019-05-14T00:52:51.644Z,2.47
2019-05-14T00:55:22.292Z,2.10
2019-05-14T00:57:52.158Z,1.83
2019-05-14T01:00:22.034Z,2.20
2019-05-14T01:02:51.788Z,2.00
2019-05-14T01:05:21.562Z,2.13
2019-05-14T01:07:51.434Z,2.30
2019-05-14T01:10:19.477Z,2.13
2019-05-14T01:13:06.943Z,1.97
2019-05-14T01:15:34.711Z,1.87
2019-05-14T01:18:02.520Z,2.00
2019-05-14T01:20:31.938Z,2.10
2019-05-14T01:23:02.042Z,2.07
2019-05-14T01:25:31.723Z,2.00
2019-05-14T01:28:01.891Z,2.50
2019-05-14T01:30:29.174Z,3.00
2019-05-14T01:33:02.280Z,2.80
2019-05-14T01:35:31.559Z,2.93
2019-05-14T01:37:59.698Z,2.50
2019-05-14T01:40:27.461Z,2.33
2019-05-14T01:42:55.238Z,2.00
2019-05-14T01:45:27.888Z,1.83
2019-05-14T01:47:52.721Z,2.13
2019-05-14T01:50:21.597Z,2.17
2019-05-14T01:52:51.863Z,1.83
2019-05-14T01:55:19.253Z,2.03
2019-05-14T01:57:47.032Z,1.93
2019-05-14T02:00:15.014Z,2.50
2019-05-14T02:02:42.776Z,2.37
2019-05-14T02:05:12.427Z,2.10
2019-05-14T02:07:41.988Z,5.60
2019-05-14T02:10:11.645Z,2.90
2019-05-14T02:12:42.360Z,4.37
2019-05-14T02:15:12.030Z,5.27
2019-05-14T02:17:41.475Z,2.43
2019-05-14T02:20:12.370Z,2.57
2019-05-14T02:22:41.737Z,2.40
2019-05-14T02:25:11.666Z,2.33
2019-05-14T02:27:41.426Z,2.20
2019-05-14T02:30:09.626Z,1.90
2019-05-14T02:32:40.395Z,2.13
2019-05-14T02:35:09.832Z,2.10
2019-05-14T02:37:40.081Z,2.33
2019-05-14T02:40:09.629Z,2.17
2019-05-14T02:42:39.703Z,2.17
2019-05-14T02:45:08.942Z,1.90
2019-05-14T02:47:39.660Z,2.03
2019-05-14T02:50:09.684Z,1.73
2019-05-14T02:52:36.136Z,1.70
2019-05-14T02:55:04.513Z,2.17
2019-05-14T02:57:32.319Z,1.73
2019-05-14T03:00:00.097Z,2.17
2019-05-14T03:02:29.695Z,1.90
2019-05-14T03:04:59.191Z,2.00
2019-05-14T03:07:29.815Z,2.00
2019-05-14T03:09:59.405Z,1.77
2019-05-14T03:12:29.998Z,2.37
2019-05-14T03:14:58.846Z,1.60
2019-05-14T03:17:26.206Z,1.60
2019-05-14T03:19:53.996Z,2.07
2019-05-14T03:22:41.647Z,1.80
2019-05-14T03:24:59.635Z,1.57
2019-05-14T03:27:30.099Z,1.80
2019-05-14T03:29:58.479Z,2.03
2019-05-14T03:32:25.875Z,1.40
2019-05-14T03:34:54.445Z,1.93
2019-05-14T03:37:24.035Z,2.20
2019-05-14T03:39:52.038Z,1.90
2019-05-14T03:42:19.955Z,1.93
2019-05-14T03:44:49.092Z,1.90
2019-05-14T03:47:19.664Z,1.90
2019-05-14T03:49:49.565Z,1.73
2019-05-14T03:52:19.608Z,2.10
2019-05-14T03:54:49.441Z,1.83
2019-05-14T03:57:15.985Z,2.07
2019-05-14T03:59:43.845Z,2.03
2019-05-14T04:02:12.123Z,1.63
2019-05-14T04:04:39.922Z,1.70
2019-05-14T04:07:10.250Z,1.60
2019-05-14T04:09:40.217Z,1.90
2019-05-14T04:12:10.022Z,1.80
2019-05-14T04:14:44.285Z,1.83
2019-05-14T04:17:17.316Z,2.10
2019-05-14T04:19:49.266Z,1.93
2019-05-14T04:22:19.031Z,1.87
2019-05-14T04:24:49.579Z,1.90
2019-05-14T04:27:20.337Z,1.80
2019-05-14T04:29:52.455Z,2.07
2019-05-14T04:32:20.518Z,2.10
2019-05-14T04:34:49.868Z,1.93
2019-05-14T04:37:20.097Z,1.87
2019-05-14T04:39:50.308Z,1.77
2019-05-14T04:42:22.578Z,1.80
2019-05-14T04:44:50.908Z,1.97
2019-05-14T04:47:30.395Z,1.60
2019-05-14T04:49:50.515Z,2.00
2019-05-14T04:52:20.487Z,1.80
2019-05-14T04:54:49.964Z,1.70
2019-05-14T04:57:20.361Z,1.57
2019-05-14T04:59:49.352Z,1.70
2019-05-14T05:02:19.843Z,1.97
2019-05-14T05:04:50.745Z,1.67
2019-05-14T05:07:19.190Z,1.90
2019-05-14T05:09:49.871Z,1.67
2019-05-14T05:12:19.429Z,1.70
2019-05-14T05:14:49.078Z,3.70
2019-05-14T05:17:15.916Z,1.90
2019-05-14T05:19:45.734Z,4.40
2019-05-14T05:22:13.487Z,6.20
2019-05-14T05:24:41.243Z,3.00
2019-05-14T05:27:09.462Z,3.37
2019-05-14T05:29:39.250Z,2.47
2019-05-14T05:32:08.703Z,2.97
2019-05-14T05:34:38.907Z,2.67
2019-05-14T05:37:08.624Z,3.30
2019-05-14T05:39:38.506Z,6.87
2019-05-14T05:42:05.953Z,5.57
2019-05-14T05:44:33.783Z,3.90
2019-05-14T05:47:01.534Z,3.87
2019-05-14T05:49:29.402Z,3.47
2019-05-14T05:51:59.143Z,3.53
2019-05-14T05:54:29.022Z,2.87
2019-05-14T05:56:58.172Z,2.57
2019-05-14T05:59:29.004Z,2.13
2019-05-14T06:01:58.425Z,2.00
2019-05-14T06:04:25.884Z,2.30
2019-05-14T06:06:55.572Z,1.90
2019-05-14T06:09:23.407Z,2.27
2019-05-14T06:11:51.237Z,1.80
2019-05-14T06:14:19.134Z,2.10
2019-05-14T06:16:48.947Z,1.90
2019-05-14T06:19:18.526Z,1.50
2019-05-14T06:21:48.738Z,1.67
2019-05-14T06:24:16.018Z,1.60
2019-05-14T06:26:43.839Z,1.50
2019-05-14T06:29:11.686Z,1.50
2019-05-14T06:31:39.516Z,1.50
2019-05-14T06:34:09.521Z,1.13
2019-05-14T06:36:39.568Z,1.70
2019-05-14T06:39:09.136Z,1.60
2019-05-14T06:41:42.414Z,1.60
2019-05-14T06:44:09.224Z,1.60
2019-05-14T06:46:38.976Z,1.47
2019-05-14T06:49:09.042Z,1.53
2019-05-14T06:51:39.312Z,1.80
2019-05-14T06:54:06.344Z,1.80
2019-05-14T06:56:34.150Z,1.70
2019-05-14T06:59:01.992Z,1.70
2019-05-14T07:01:29.792Z,1.90
2019-05-14T07:03:58.100Z,1.47
2019-05-14T07:06:28.808Z,1.77
2019-05-14T07:08:55.686Z,1.50
2019-05-14T07:11:23.472Z,1.50
2019-05-14T07:13:51.297Z,1.80
2019-05-14T07:16:19.732Z,2.00
2019-05-14T07:18:52.852Z,1.70
2019-05-14T07:21:18.664Z,1.70
2019-05-14T07:23:48.819Z,1.87
2019-05-14T07:26:19.011Z,1.80
2019-05-14T07:28:48.556Z,1.90
2019-05-14T07:31:18.395Z,1.57
2019-05-14T07:33:45.397Z,1.60
2019-05-14T07:36:13.238Z,1.40
2019-05-14T07:38:40.993Z,1.20
2019-05-14T07:41:09.432Z,1.70
2019-05-14T07:43:39.384Z,1.90
2019-05-14T07:46:08.476Z,1.60
2019-05-14T07:48:38.971Z,1.57
2019-05-14T07:51:08.781Z,1.70
2019-05-14T07:53:39.752Z,1.60
2019-05-14T07:56:05.691Z,2.00
2019-05-14T07:58:33.524Z,1.77
2019-05-14T08:01:01.339Z,1.73
2019-05-14T08:03:29.121Z,1.50
2019-05-14T08:05:58.861Z,1.70
2019-05-14T08:08:29.048Z,1.60
2019-05-14T08:10:58.975Z,1.53
2019-05-14T08:13:28.222Z,1.70
2019-05-14T08:15:58.168Z,1.82
2019-05-14T08:18:25.638Z,1.80
2019-05-14T08:20:53.487Z,1.50
2019-05-14T08:23:21.250Z,1.70
2019-05-14T08:25:49.022Z,1.67
2019-05-14T08:28:18.462Z,2.00
2019-05-14T08:30:48.902Z,1.70
2019-05-14T08:33:18.282Z,1.60
2019-05-14T08:35:45.951Z,1.70
2019-05-14T08:38:14.016Z,1.90
2019-05-14T08:40:41.925Z,1.40
2019-05-14T08:43:09.703Z,1.80
2019-05-14T08:45:38.935Z,1.70
2019-05-14T08:48:09.127Z,1.72
2019-05-14T08:50:38.723Z,1.70
2019-05-14T08:53:08.998Z,1.80
2019-05-14T08:55:38.209Z,1.77
2019-05-14T08:58:11.105Z,1.82
2019-05-14T09:00:36.192Z,1.50
2019-05-14T09:03:04.767Z,1.60
2019-05-14T09:05:32.503Z,1.37
2019-05-14T09:08:00.238Z,1.50
2019-05-14T09:10:28.554Z,1.50
2019-05-14T09:12:58.330Z,1.30
2019-05-14T09:15:28.671Z,1.57
2019-05-14T09:17:56.010Z,1.33
2019-05-14T09:20:23.782Z,1.10
2019-05-14T09:22:51.661Z,1.20
2019-05-14T09:25:19.731Z,1.50
2019-05-14T09:27:49.332Z,1.83
2019-05-14T09:30:18.664Z,1.60
2019-05-14T09:32:49.262Z,1.70
2019-05-14T09:35:18.780Z,1.37
2019-05-14T09:37:51.021Z,1.20
2019-05-14T09:40:16.024Z,1.47
2019-05-14T09:42:43.875Z,1.40
2019-05-14T09:45:11.822Z,1.27
2019-05-14T09:47:39.623Z,1.50
2019-05-14T09:50:16.389Z,1.50
2019-05-14T09:52:39.084Z,1.43
2019-05-14T09:55:09.337Z,1.40
2019-05-14T09:57:38.782Z,1.50
2019-05-14T10:00:14.422Z,1.50
2019-05-14T10:02:48.847Z,1.80
2019-05-14T10:05:15.691Z,1.33
2019-05-14T10:07:43.581Z,1.27
2019-05-14T10:10:11.443Z,1.30
2019-05-14T10:12:51.608Z,1.50
2019-05-14T10:15:10.200Z,1.40
2019-05-14T10:17:39.181Z,1.30
2019-05-14T10:20:08.849Z,1.80
2019-05-14T10:22:39.532Z,1.60
2019-05-14T10:25:09.047Z,1.40
2019-05-14T10:27:37.179Z,1.05
2019-05-14T10:30:09.930Z,1.37
2019-05-14T10:32:41.370Z,1.23
2019-05-14T10:35:08.517Z,1.20
2019-05-14T10:37:39.824Z,1.30
2019-05-14T10:40:06.299Z,1.30
2019-05-14T10:43:04.838Z,1.20
2019-05-14T10:45:32.613Z,1.23
2019-05-14T10:48:00.395Z,1.20
2019-05-14T10:50:28.939Z,1.27
2019-05-14T10:52:59.610Z,1.40
2019-05-14T10:55:27.992Z,1.30
2019-05-14T10:57:58.295Z,1.20
2019-05-14T11:00:28.250Z,1.20
2019-05-14T11:02:55.860Z,1.10
2019-05-14T11:05:23.627Z,1.30
2019-05-14T11:07:51.461Z,1.00
2019-05-14T11:10:19.652Z,1.90
2019-05-14T11:12:50.630Z,1.63
2019-05-14T11:15:19.081Z,1.80
2019-05-14T11:17:48.713Z,1.17
2019-05-14T11:20:19.155Z,1.40
2019-05-14T11:23:29.831Z,1.30
2019-05-14T11:25:58.151Z,1.27
2019-05-14T11:28:28.527Z,1.40
2019-05-14T11:30:55.998Z,1.20
2019-05-14T11:33:23.949Z,1.67
2019-05-14T11:35:51.742Z,1.60
2019-05-14T11:38:31.756Z,1.30
2019-05-14T11:40:49.689Z,1.20
2019-05-14T11:43:17.739Z,1.20
2019-05-14T11:45:48.263Z,1.43
2019-05-14T11:48:15.300Z,1.43
2019-05-14T11:50:43.490Z,1.30
2019-05-14T11:53:11.313Z,1.40
2019-05-14T11:55:39.141Z,1.47
2019-05-14T11:58:08.732Z,1.40
2019-05-14T12:00:38.717Z,1.03
2019-05-14T12:03:09.062Z,1.30
2019-05-14T12:05:38.699Z,1.30
2019-05-14T12:08:05.972Z,1.40
2019-05-14T12:10:33.733Z,1.40
2019-05-14T12:13:01.587Z,1.60
2019-05-14T12:15:29.361Z,1.13
2019-05-14T12:17:59.597Z,1.50
2019-05-14T12:20:29.452Z,1.10
2019-05-14T12:22:59.112Z,1.10
2019-05-14T12:25:29.207Z,1.00
2019-05-14T12:27:58.752Z,1.13
2019-05-14T12:30:28.454Z,1.13
2019-05-14T12:32:55.505Z,1.17
2019-05-14T12:35:23.258Z,1.10
2019-05-14T12:37:51.080Z,0.90
2019-05-14T12:40:19.535Z,1.20
2019-05-14T12:42:49.673Z,0.93
2019-05-14T12:45:19.007Z,0.90
2019-05-14T12:47:49.805Z,1.27
2019-05-14T12:50:16.954Z,1.20
2019-05-14T12:52:45.008Z,0.93
2019-05-14T12:55:12.884Z,1.40
2019-05-14T12:57:41.177Z,0.97
2019-05-14T13:00:10.091Z,1.17
2019-05-14T13:02:38.522Z,1.13
2019-05-14T13:05:09.041Z,1.17
2019-05-14T13:07:41.779Z,1.20
2019-05-14T13:10:10.183Z,1.20
2019-05-14T13:12:39.298Z,1.30
2019-05-14T13:15:08.840Z,1.10
2019-05-14T13:17:38.869Z,1.00
2019-05-14T13:20:13.839Z,0.80
2019-05-14T13:22:45.570Z,1.10
2019-05-14T13:25:10.621Z,0.90
2019-05-14T13:27:39.486Z,1.30
2019-05-14T13:30:09.295Z,1.03
2019-05-14T13:32:42.491Z,1.40
2019-05-14T13:35:13.610Z,1.07
2019-05-14T13:37:40.195Z,0.97
2019-05-14T13:40:09.216Z,1.50
2019-05-14T13:42:39.875Z,1.00
2019-05-14T13:45:10.212Z,1.00
2019-05-14T13:47:38.858Z,0.90
2019-05-14T13:50:08.526Z,0.80
2019-05-14T13:52:40.446Z,1.20
2019-05-14T13:55:09.315Z,1.03
2019-05-14T13:57:39.468Z,0.97
2019-05-14T14:00:11.926Z,0.97
2019-05-14T14:02:37.073Z,1.00
2019-05-14T14:05:08.552Z,0.97
2019-05-14T14:07:39.120Z,1.40
2019-05-14T14:10:09.143Z,0.97
2019-05-14T14:12:39.903Z,1.30
2019-05-14T14:15:09.558Z,0.93
2019-05-14T14:17:39.041Z,1.30
2019-05-14T14:20:08.519Z,0.97
2019-05-14T14:22:39.490Z,1.47
2019-05-14T14:25:08.613Z,1.10
2019-05-14T14:27:35.977Z,1.00
2019-05-14T14:30:05.923Z,1.20
2019-05-14T14:32:33.933Z,1.30
2019-05-14T14:35:01.967Z,1.30
2019-05-14T14:37:29.968Z,0.90
2019-05-14T14:39:59.278Z,1.00
2019-05-14T14:42:42.877Z,1.27
2019-05-14T14:45:10.895Z,0.93
2019-05-14T14:47:39.533Z,1.20
2019-05-14T14:50:09.340Z,1.07
2019-05-14T14:52:37.173Z,1.50
2019-05-14T14:55:05.570Z,1.00
2019-05-14T14:57:33.366Z,1.60
2019-05-14T15:00:01.186Z,0.90
2019-05-14T15:02:29.170Z,1.07
2019-05-14T15:04:59.583Z,0.90
2019-05-14T15:07:29.771Z,1.33
2019-05-14T15:09:59.462Z,0.87
2019-05-14T15:12:28.862Z,0.77
2019-05-14T15:14:59.114Z,0.93
2019-05-14T15:17:25.786Z,1.20
2019-05-14T15:19:53.618Z,1.40
2019-05-14T15:22:21.421Z,0.93
2019-05-14T15:24:49.211Z,2.93
2019-05-14T15:27:18.886Z,1.33
2019-05-14T15:29:48.859Z,1.10
2019-05-14T15:32:19.607Z,1.20
2019-05-14T15:34:50.273Z,1.30
2019-05-14T15:37:16.233Z,0.80
2019-05-14T15:39:44.031Z,1.27
2019-05-14T15:42:13.727Z,1.00
2019-05-14T15:44:48.934Z,1.00
2019-05-14T15:47:11.813Z,1.20
2019-05-14T15:49:40.017Z,1.00
2019-05-14T15:52:08.408Z,1.00
2019-05-14T15:54:46.298Z,1.10
2019-05-14T15:57:06.154Z,1.40
2019-05-14T15:59:33.955Z,1.03
2019-05-14T16:02:01.719Z,1.40
2019-05-14T16:04:29.541Z,1.00
2019-05-14T16:06:58.642Z,1.57
2019-05-14T16:09:28.940Z,0.90
2019-05-14T16:11:56.389Z,0.90
2019-05-14T16:14:24.216Z,0.93
2019-05-14T16:16:52.058Z,1.33
2019-05-14T16:19:19.950Z,1.30
2019-05-14T16:22:03.030Z,1.00
2019-05-14T16:24:31.073Z,1.00
2019-05-14T16:27:00.098Z,1.07
2019-05-14T16:29:38.242Z,1.10
2019-05-14T16:31:58.702Z,1.20
2019-05-14T16:34:28.566Z,1.07
2019-05-14T16:36:58.341Z,1.40
2019-05-14T16:39:28.459Z,1.20
2019-05-14T16:41:58.358Z,1.10
2019-05-14T16:44:28.329Z,1.50
2019-05-14T16:46:58.718Z,1.40
2019-05-14T16:49:29.376Z,1.07
2019-05-14T16:52:01.476Z,2.30
2019-05-14T16:54:29.956Z,1.00
2019-05-14T16:57:01.032Z,1.20
2019-05-14T16:59:29.751Z,1.57
2019-05-14T17:01:58.510Z,0.97
2019-05-14T17:04:26.506Z,1.53
2019-05-14T17:06:54.300Z,0.93
2019-05-14T17:09:22.225Z,1.10
2019-05-14T17:11:55.076Z,1.27
2019-05-14T17:14:23.256Z,0.87
2019-05-14T17:16:51.565Z,0.93
2019-05-14T17:19:19.512Z,1.23
2019-05-14T17:21:48.756Z,1.30
2019-05-14T17:24:19.775Z,1.00
2019-05-14T17:26:48.838Z,1.00
2019-05-14T17:29:19.132Z,1.10
2019-05-14T17:31:52.725Z,1.40
2019-05-14T17:34:20.891Z,1.17
2019-05-14T17:36:49.151Z,1.10
2019-05-14T17:39:18.760Z,2.10
2019-05-14T17:41:48.458Z,1.27
2019-05-14T17:44:16.706Z,1.20
2019-05-14T17:46:44.800Z,1.33
2019-05-14T17:49:12.663Z,1.40
2019-05-14T17:51:40.849Z,1.90
2019-05-14T17:54:09.217Z,1.83
2019-05-14T17:56:39.026Z,1.37
2019-05-14T17:59:08.630Z,1.30
2019-05-14T18:01:39.062Z,1.60
2019-05-14T18:04:08.905Z,1.50
2019-05-14T18:06:36.137Z,1.43
2019-05-14T18:09:04.949Z,1.37
2019-05-14T18:11:33.849Z,1.37
2019-05-14T18:14:01.711Z,1.40
2019-05-14T18:16:29.555Z,1.37
2019-05-14T18:18:58.260Z,1.50
2019-05-14T18:21:28.475Z,1.30
2019-05-14T18:23:58.423Z,1.40
2019-05-14T18:26:25.861Z,1.17
2019-05-14T18:28:53.696Z,1.00
2019-05-14T18:31:21.493Z,1.20
2019-05-14T18:33:49.528Z,1.03
2019-05-14T18:36:20.185Z,1.27
2019-05-14T18:38:49.396Z,1.33
2019-05-14T18:41:18.911Z,2.00
2019-05-14T18:43:47.000Z,2.00
2019-05-14T18:46:14.899Z,2.20
2019-05-14T18:48:42.643Z,2.27
2019-05-14T18:51:10.500Z,1.97
2019-05-14T18:53:38.650Z,1.80
2019-05-14T18:56:19.656Z,1.23
2019-05-14T18:58:38.183Z,2.90
2019-05-14T19:01:06.157Z,2.20
2019-05-14T19:03:39.898Z,1.10
2019-05-14T19:06:07.920Z,2.10
2019-05-14T19:08:35.792Z,1.67
2019-05-14T19:11:03.689Z,1.30
2019-05-14T19:13:31.764Z,1.20
2019-05-14T19:15:59.628Z,1.13
2019-05-14T19:18:28.598Z,1.27
2019-05-14T19:20:59.000Z,3.23
2019-05-14T19:23:28.717Z,1.40
2019-05-14T19:25:56.253Z,1.33
2019-05-14T19:28:24.129Z,1.10
2019-05-14T19:30:51.990Z,0.93
2019-05-14T19:33:20.581Z,1.70
2019-05-14T19:35:48.771Z,1.60
2019-05-14T19:38:17.933Z,1.53
2019-05-14T19:40:48.256Z,2.13
2019-05-14T19:43:21.233Z,1.40
2019-05-14T19:45:49.052Z,2.10
2019-05-14T19:48:18.965Z,1.70
2019-05-14T19:50:48.882Z,1.60
2019-05-14T19:53:16.490Z,1.63
2019-05-14T19:55:44.383Z,1.30
2019-05-14T19:58:12.218Z,1.33
2019-05-14T20:00:43.277Z,1.50
2019-05-14T20:03:11.142Z,1.20
2019-05-14T20:05:39.523Z,1.33
2019-05-14T20:08:08.757Z,1.60
2019-05-14T20:10:38.759Z,2.00
2019-05-14T20:13:06.762Z,1.83
2019-05-14T20:15:34.712Z,2.00
2019-05-14T20:18:02.592Z,1.50
2019-05-14T20:20:30.628Z,1.40
2019-05-14T20:22:59.001Z,1.23
2019-05-14T20:25:28.057Z,1.23
2019-05-14T20:27:55.988Z,1.40
2019-05-14T20:30:23.890Z,0.97
2019-05-14T20:32:52.180Z,1.27
2019-05-14T20:35:30.759Z,1.53
2019-05-14T20:37:49.720Z,1.50
2019-05-14T20:40:17.646Z,1.30
2019-05-14T20:42:45.641Z,1.27
2019-05-14T20:45:13.629Z,1.37
2019-05-14T20:47:42.495Z,1.13
2019-05-14T20:50:10.426Z,1.60
2019-05-14T20:52:38.542Z,1.50
2019-05-14T20:55:09.216Z,1.20
2019-05-14T21:00:04.972Z,1.13
2019-05-14T21:02:32.920Z,1.20
2019-05-14T21:05:04.364Z,1.20
2019-05-14T21:07:30.453Z,1.03
2019-05-14T21:09:58.229Z,1.40
2019-05-14T21:12:28.700Z,1.40
2019-05-14T21:14:55.879Z,1.50
2019-05-14T21:17:23.676Z,1.27
2019-05-14T21:19:52.610Z,1.60
2019-05-14T21:22:20.603Z,1.70
2019-05-14T21:24:51.036Z,2.00
2019-05-14T21:27:18.742Z,1.13
2019-05-14T21:29:48.765Z,1.40
2019-05-14T21:32:21.518Z,1.40
2019-05-14T21:34:49.335Z,1.63
2019-05-14T21:37:18.824Z,1.40
2019-05-14T21:39:48.896Z,1.40
2019-05-14T21:42:28.522Z,1.33
2019-05-14T21:44:58.415Z,1.27
2019-05-14T21:47:26.082Z,1.57
2019-05-14T21:49:53.840Z,1.60
2019-05-14T21:52:21.639Z,1.40
2019-05-14T21:54:49.425Z,1.33
2019-05-14T21:57:19.000Z,1.40
2019-05-14T21:59:48.019Z,1.17
2019-05-14T22:02:24.438Z,1.50
2019-05-14T22:04:49.119Z,1.80
2019-05-14T22:07:30.093Z,1.80
2019-05-14T22:09:58.355Z,1.80
2019-05-14T22:12:31.244Z,1.93
2019-05-14T22:14:59.062Z,1.60
2019-05-14T22:17:28.526Z,1.80
2019-05-14T22:19:58.298Z,1.90
2019-05-14T22:22:27.813Z,2.17
2019-05-14T22:24:56.138Z,1.90
2019-05-14T22:27:23.963Z,2.10
2019-05-14T22:29:51.779Z,1.87
2019-05-14T22:32:19.693Z,2.30
2019-05-14T22:34:49.075Z,2.00
2019-05-14T22:37:19.908Z,2.13
2019-05-14T22:39:48.040Z,1.60
2019-05-14T22:42:16.006Z,2.00
2019-05-14T22:44:43.822Z,2.00
2019-05-14T22:47:14.685Z,1.63
2019-05-14T22:49:42.479Z,2.03
2019-05-14T22:52:10.452Z,1.70
2019-05-14T22:54:38.766Z,1.83
2019-05-14T22:57:06.620Z,1.77
2019-05-14T22:59:34.351Z,1.73
2019-05-14T23:02:02.485Z,1.40
2019-05-14T23:04:30.238Z,1.50
2019-05-14T23:06:58.699Z,1.50
2019-05-14T23:09:26.796Z,1.90
2019-05-14T23:11:54.747Z,1.43
2019-05-14T23:14:22.498Z,1.90
2019-05-14T23:16:50.326Z,1.60
2019-05-14T23:19:18.751Z,1.60
2019-05-14T23:21:48.455Z,1.57
2019-05-14T23:24:18.762Z,1.67
2019-05-14T23:26:48.996Z,1.73
2019-05-14T23:29:15.833Z,1.60
2019-05-14T23:31:43.889Z,1.30
2019-05-14T23:34:11.668Z,1.67
2019-05-14T23:36:39.442Z,1.37
2019-05-14T23:39:08.813Z,1.40
2019-05-14T23:41:38.340Z,1.83
2019-05-14T23:44:08.354Z,1.77
2019-05-14T23:46:36.164Z,1.73
2019-05-14T23:49:03.942Z,1.90
2019-05-14T23:51:31.918Z,1.80
2019-05-14T23:53:59.711Z,1.70
2019-05-14T23:56:28.873Z,1.90
2019-05-14T23:59:01.678Z,1.70
